createdAt,value
2018-07-19T00:03:58.422Z,99.90
2018-07-19T00:16:09.512Z,99.90
2018-07-19T00:24:16.902Z,99.90
2018-07-19T00:36:27.892Z,99.90
2018-07-19T00:48:38.882Z,99.90
2018-07-19T00:52:42.783Z,99.90
2018-07-19T01:08:57.568Z,99.90
2018-07-19T01:25:12.284Z,99.90
2018-07-19T01:37:23.243Z,99.90
2018-07-19T01:42:20.094Z,99.90
2018-07-19T01:46:24.273Z,99.90
2018-07-19T02:10:46.140Z,99.90
2018-07-19T02:14:50.022Z,99.90
2018-07-19T02:22:57.559Z,99.90
2018-07-19T02:31:05.104Z,99.90
2018-07-19T02:35:09.013Z,99.90
2018-07-19T02:39:13.575Z,99.90
2018-07-19T02:43:17.483Z,99.90
2018-07-19T02:55:28.437Z,99.90
2018-07-19T02:59:32.452Z,99.90
2018-07-19T03:03:36.331Z,99.90
2018-07-19T03:11:47.131Z,99.90
2018-07-19T03:15:51.044Z,99.90
2018-07-19T03:19:54.912Z,99.90
2018-07-19T03:23:58.841Z,99.90
2018-07-19T03:36:10.112Z,99.90
2018-07-19T03:40:14.195Z,99.90
2018-07-19T03:44:17.989Z,99.90
2018-07-19T03:52:25.551Z,99.90
2018-07-19T03:56:29.576Z,99.90
2018-07-19T04:00:33.675Z,99.90
2018-07-19T04:08:41.128Z,99.90
2018-07-19T04:20:52.239Z,99.90
2018-07-19T04:24:56.104Z,99.90
2018-07-19T04:29:00.436Z,99.90
2018-07-19T04:33:04.307Z,99.90
2018-07-19T04:45:16.595Z,99.90
2018-07-19T04:49:20.464Z,99.90
2018-07-19T04:53:24.379Z,99.90
2018-07-19T05:01:32.020Z,99.90
2018-07-19T05:05:35.910Z,99.90
2018-07-19T05:09:39.808Z,99.90
2018-07-19T05:17:47.247Z,99.90
2018-07-19T05:21:51.127Z,99.90
2018-07-19T05:42:09.852Z,99.90
2018-07-19T05:46:13.709Z,99.90
2018-07-19T06:06:33.628Z,99.90
2018-07-19T06:10:37.508Z,99.90
2018-07-19T06:26:52.133Z,99.90
2018-07-19T06:30:56.257Z,99.90
2018-07-19T06:43:08.636Z,99.90
2018-07-19T06:47:12.668Z,99.90
2018-07-19T07:03:27.306Z,99.90
2018-07-19T07:15:38.380Z,99.90
2018-07-19T07:19:42.285Z,99.90
2018-07-19T07:27:49.801Z,99.90
2018-07-19T07:35:57.316Z,99.90
2018-07-19T07:44:05.034Z,99.90
2018-07-19T07:48:08.843Z,99.90
2018-07-19T08:00:19.804Z,99.90
2018-07-19T08:04:23.699Z,99.90
2018-07-19T08:32:49.092Z,99.90
2018-07-19T08:45:00.028Z,99.90
2018-07-19T08:49:06.327Z,99.90
2018-07-19T08:53:10.223Z,99.90
2018-07-19T09:09:25.457Z,99.90
2018-07-19T09:17:32.909Z,99.90
2018-07-19T09:29:43.896Z,99.90
2018-07-19T09:33:47.888Z,99.90
2018-07-19T09:45:58.825Z,99.90
2018-07-19T10:06:17.156Z,99.90
2018-07-19T10:18:28.116Z,99.90
2018-07-19T10:30:39.037Z,96.60
2018-07-19T10:50:57.558Z,93.40
2018-07-19T11:19:23.408Z,96.20
2018-07-19T11:27:30.824Z,94.20
2018-07-19T11:39:41.888Z,95.30
2018-07-19T11:43:45.739Z,94.80
2018-07-19T12:12:11.060Z,94.40
2018-07-19T12:16:15.077Z,98.30
2018-07-19T12:28:28.137Z,97.70
2018-07-19T12:32:32.072Z,96.20
2018-07-19T12:44:43.210Z,92.20
2018-07-19T12:52:50.629Z,94.40
2018-07-19T12:56:54.543Z,98.40
2018-07-19T13:05:01.932Z,94.80
2018-07-19T13:09:07.780Z,98.10
2018-07-19T13:13:11.649Z,94.40
2018-07-19T13:21:19.077Z,94.10
2018-07-19T13:25:22.985Z,96.00
2018-07-19T13:33:30.792Z,99.80
2018-07-19T13:37:34.884Z,99.00
2018-07-19T13:49:45.976Z,99.90
2018-07-19T14:02:02.600Z,99.50
2018-07-19T14:06:06.789Z,99.90
2018-07-19T14:18:17.839Z,99.90
2018-07-19T14:22:21.752Z,99.90
2018-07-19T14:30:29.228Z,96.30
2018-07-19T14:34:33.104Z,97.30
2018-07-19T14:42:40.739Z,96.20
2018-07-19T14:46:44.633Z,99.90
2018-07-19T14:50:48.511Z,99.90
2018-07-19T15:15:11.108Z,98.50
2018-07-19T15:27:22.180Z,99.90
2018-07-19T15:47:40.593Z,99.90
2018-07-19T15:55:48.955Z,99.90
2018-07-19T16:28:24.332Z,99.30
2018-07-19T16:40:35.520Z,99.90
2018-07-19T16:44:39.372Z,99.90
2018-07-19T16:48:43.528Z,99.90
2018-07-19T17:00:54.484Z,99.90
2018-07-19T17:13:05.785Z,99.90
2018-07-19T17:21:13.368Z,99.90
2018-07-19T17:25:17.280Z,99.90
2018-07-19T17:29:21.188Z,99.90
2018-07-19T17:53:43.318Z,99.90
2018-07-19T18:01:50.888Z,99.90
2018-07-19T18:05:54.733Z,99.90
2018-07-19T18:18:06.180Z,99.90
2018-07-19T18:22:10.162Z,99.90
2018-07-19T18:42:28.504Z,99.90
2018-07-19T18:54:39.461Z,99.90
2018-07-19T19:06:50.479Z,99.90
2018-07-19T19:10:54.347Z,99.90
2018-07-19T19:31:12.645Z,99.90
2018-07-19T19:43:23.588Z,99.90
2018-07-19T19:55:34.593Z,99.90
2018-07-19T20:03:43.101Z,99.90
2018-07-19T20:11:50.637Z,99.90
2018-07-19T20:15:56.428Z,99.90
2018-07-19T20:44:22.844Z,99.90
2018-07-19T20:48:28.924Z,99.90
2018-07-19T20:56:36.364Z,99.90
2018-07-19T21:20:58.568Z,99.90
2018-07-19T21:25:02.484Z,99.90
2018-07-19T21:41:17.688Z,99.90
2018-07-19T21:49:25.148Z,99.90
2018-07-19T21:53:29.071Z,99.90
2018-07-19T22:05:44.619Z,99.90
2018-07-19T22:09:48.484Z,99.90
2018-07-19T22:17:56.035Z,99.90
2018-07-19T22:30:07.347Z,99.90
2018-07-19T22:34:11.291Z,99.90
2018-07-19T22:38:15.216Z,99.90
2018-07-19T22:50:27.313Z,99.90
2018-07-19T22:58:36.096Z,99.90
2018-07-19T23:02:40.037Z,99.90
2018-07-19T23:14:51.314Z,99.90
2018-07-19T23:18:55.212Z,99.90
2018-07-19T23:22:59.483Z,99.90
2018-07-19T23:27:03.491Z,99.90
2018-07-19T23:35:11.116Z,99.90
2018-07-19T23:39:19.563Z,99.90
2018-07-19T23:55:42.439Z,99.90
